sensor_id;sensor_type;location;lat;lon;timestamp;temperature;humidity
16846;DHT22;8539;53.188;8.696;2023-04-06T00:02:17;0.50;99.90
16846;DHT22;8539;53.188;8.696;2023-04-06T00:04:44;0.50;99.90
16846;DHT22;8539;53.188;8.696;2023-04-06T00:07:11;0.50;99.90
16846;DHT22;8539;53.188;8.696;2023-04-06T00:09:37;0.40;99.90
16846;DHT22;8539;53.188;8.696;2023-04-06T00:12:04;0.40;99.90
16846;DHT22;8539;53.188;8.696;2023-04-06T00:14:32;0.40;99.90
16846;DHT22;8539;53.188;8.696;2023-04-06T00:16:59;0.40;99.90
16846;DHT22;8539;53.188;8.696;2023-04-06T00:19:26;0.40;99.90
16846;DHT22;8539;53.188;8.696;2023-04-06T00:21:53;0.30;99.90
16846;DHT22;8539;53.188;8.696;2023-04-06T00:24:19;0.30;99.90
16846;DHT22;8539;53.188;8.696;2023-04-06T00:26:47;0.30;99.90
16846;DHT22;8539;53.188;8.696;2023-04-06T00:29:16;0.20;99.90
16846;DHT22;8539;53.188;8.696;2023-04-06T00:31:43;0.20;99.90
16846;DHT22;8539;53.188;8.696;2023-04-06T00:34:12;0.30;99.90
16846;DHT22;8539;53.188;8.696;2023-04-06T00:36:39;0.20;99.90
16846;DHT22;8539;53.188;8.696;2023-04-06T00:39:09;0.20;99.90
16846;DHT22;8539;53.188;8.696;2023-04-06T00:41:36;0.10;99.90
16846;DHT22;8539;53.188;8.696;2023-04-06T00:44:02;0.10;99.90
16846;DHT22;8539;53.188;8.696;2023-04-06T00:46:29;0.10;99.90
16846;DHT22;8539;53.188;8.696;2023-04-06T00:48:56;0.00;99.90
16846;DHT22;8539;53.188;8.696;2023-04-06T00:51:23;0.00;99.90
16846;DHT22;8539;53.188;8.696;2023-04-06T00:53:50;0.00;99.90
16846;DHT22;8539;53.188;8.696;2023-04-06T00:56:17;0.10;99.90
16846;DHT22;8539;53.188;8.696;2023-04-06T00:58:43;0.00;99.90
16846;DHT22;8539;53.188;8.696;2023-04-06T01:01:11;0.00;99.90
16846;DHT22;8539;53.188;8.696;2023-04-06T01:03:38;0.00;99.90
16846;DHT22;8539;53.188;8.696;2023-04-06T01:06:04;0.00;99.90
16846;DHT22;8539;53.188;8.696;2023-04-06T01:08:31;0.00;99.90
16846;DHT22;8539;53.188;8.696;2023-04-06T01:11:00;0.10;99.90
16846;DHT22;8539;53.188;8.696;2023-04-06T01:13:30;0.10;99.90
16846;DHT22;8539;53.188;8.696;2023-04-06T01:15:57;0.10;99.90
16846;DHT22;8539;53.188;8.696;2023-04-06T01:18:26;0.20;99.90
16846;DHT22;8539;53.188;8.696;2023-04-06T01:20:53;0.30;99.90
16846;DHT22;8539;53.188;8.696;2023-04-06T01:23:20;0.50;99.90
16846;DHT22;8539;53.188;8.696;2023-04-06T01:25:47;0.50;99.90
16846;DHT22;8539;53.188;8.696;2023-04-06T01:28:14;0.60;99.90
16846;DHT22;8539;53.188;8.696;2023-04-06T01:30:41;0.70;99.90
16846;DHT22;8539;53.188;8.696;2023-04-06T01:33:08;0.70;99.90
16846;DHT22;8539;53.188;8.696;2023-04-06T01:35:35;0.70;99.90
16846;DHT22;8539;53.188;8.696;2023-04-06T01:38:02;0.70;99.90
16846;DHT22;8539;53.188;8.696;2023-04-06T01:40:28;0.70;99.90
16846;DHT22;8539;53.188;8.696;2023-04-06T01:42:54;0.70;99.90
16846;DHT22;8539;53.188;8.696;2023-04-06T01:45:20;0.70;99.90
16846;DHT22;8539;53.188;8.696;2023-04-06T01:47:47;0.80;99.90
16846;DHT22;8539;53.188;8.696;2023-04-06T01:50:13;0.80;99.90
16846;DHT22;8539;53.188;8.696;2023-04-06T01:52:40;0.90;99.90
16846;DHT22;8539;53.188;8.696;2023-04-06T01:55:07;0.90;99.90
16846;DHT22;8539;53.188;8.696;2023-04-06T01:57:33;0.90;99.90
16846;DHT22;8539;53.188;8.696;2023-04-06T02:00:01;0.80;99.90
16846;DHT22;8539;53.188;8.696;2023-04-06T02:02:28;0.70;99.90
16846;DHT22;8539;53.188;8.696;2023-04-06T02:04:54;0.70;99.90
16846;DHT22;8539;53.188;8.696;2023-04-06T02:07:20;0.70;99.90
16846;DHT22;8539;53.188;8.696;2023-04-06T02:09:46;0.60;99.90
16846;DHT22;8539;53.188;8.696;2023-04-06T02:12:13;0.60;99.90
16846;DHT22;8539;53.188;8.696;2023-04-06T02:14:39;0.60;99.90
16846;DHT22;8539;53.188;8.696;2023-04-06T02:17:05;0.60;99.90
16846;DHT22;8539;53.188;8.696;2023-04-06T02:19:31;0.60;99.90
16846;DHT22;8539;53.188;8.696;2023-04-06T02:21:58;0.60;99.90
16846;DHT22;8539;53.188;8.696;2023-04-06T02:24:24;0.60;99.90
16846;DHT22;8539;53.188;8.696;2023-04-06T02:26:50;0.50;99.90
16846;DHT22;8539;53.188;8.696;2023-04-06T02:29:16;0.50;99.90
16846;DHT22;8539;53.188;8.696;2023-04-06T02:32:11;0.50;99.90
16846;DHT22;8539;53.188;8.696;2023-04-06T02:34:37;0.50;99.90
16846;DHT22;8539;53.188;8.696;2023-04-06T02:37:03;0.40;99.90
16846;DHT22;8539;53.188;8.696;2023-04-06T02:39:29;0.40;99.90
16846;DHT22;8539;53.188;8.696;2023-04-06T02:41:56;0.50;99.90
16846;DHT22;8539;53.188;8.696;2023-04-06T02:44:23;0.50;99.90
16846;DHT22;8539;53.188;8.696;2023-04-06T02:46:49;0.50;99.90
16846;DHT22;8539;53.188;8.696;2023-04-06T02:49:16;0.40;99.90
16846;DHT22;8539;53.188;8.696;2023-04-06T02:51:42;0.40;99.90
16846;DHT22;8539;53.188;8.696;2023-04-06T02:54:08;0.40;99.90
16846;DHT22;8539;53.188;8.696;2023-04-06T02:56:34;0.40;99.90
16846;DHT22;8539;53.188;8.696;2023-04-06T02:59:00;0.40;99.90
16846;DHT22;8539;53.188;8.696;2023-04-06T03:01:27;0.30;99.90
16846;DHT22;8539;53.188;8.696;2023-04-06T03:03:53;0.20;99.90
16846;DHT22;8539;53.188;8.696;2023-04-06T03:06:19;0.20;99.90
16846;DHT22;8539;53.188;8.696;2023-04-06T03:08:45;0.10;99.90
16846;DHT22;8539;53.188;8.696;2023-04-06T03:11:11;0.10;99.90
16846;DHT22;8539;53.188;8.696;2023-04-06T03:13:37;0.10;99.90
16846;DHT22;8539;53.188;8.696;2023-04-06T03:16:06;0.10;99.90
16846;DHT22;8539;53.188;8.696;2023-04-06T03:18:32;0.10;99.90
16846;DHT22;8539;53.188;8.696;2023-04-06T03:20:59;0.10;99.90
16846;DHT22;8539;53.188;8.696;2023-04-06T03:23:26;0.20;99.90
16846;DHT22;8539;53.188;8.696;2023-04-06T03:25:52;0.20;99.90
16846;DHT22;8539;53.188;8.696;2023-04-06T03:28:18;0.10;99.90
16846;DHT22;8539;53.188;8.696;2023-04-06T03:30:45;0.10;99.90
16846;DHT22;8539;53.188;8.696;2023-04-06T03:33:11;0.00;99.90
16846;DHT22;8539;53.188;8.696;2023-04-06T03:35:38;0.00;99.90
16846;DHT22;8539;53.188;8.696;2023-04-06T03:38:04;0.00;99.90
16846;DHT22;8539;53.188;8.696;2023-04-06T03:40:31;-0.10;99.90
16846;DHT22;8539;53.188;8.696;2023-04-06T03:42:57;-0.20;99.90
16846;DHT22;8539;53.188;8.696;2023-04-06T03:45:24;-0.30;99.90
16846;DHT22;8539;53.188;8.696;2023-04-06T03:47:50;-0.40;99.90
16846;DHT22;8539;53.188;8.696;2023-04-06T03:50:16;-0.40;99.90
16846;DHT22;8539;53.188;8.696;2023-04-06T03:52:42;-0.50;99.90
16846;DHT22;8539;53.188;8.696;2023-04-06T03:55:09;-0.50;99.90
16846;DHT22;8539;53.188;8.696;2023-04-06T03:57:35;-0.50;99.90
16846;DHT22;8539;53.188;8.696;2023-04-06T04:00:01;-0.60;99.90
16846;DHT22;8539;53.188;8.696;2023-04-06T04:02:33;-0.60;99.90
16846;DHT22;8539;53.188;8.696;2023-04-06T04:04:59;-0.70;99.90
16846;DHT22;8539;53.188;8.696;2023-04-06T04:07:26;-0.70;99.90
16846;DHT22;8539;53.188;8.696;2023-04-06T04:09:52;-0.80;99.90
16846;DHT22;8539;53.188;8.696;2023-04-06T04:12:18;-0.80;99.90
16846;DHT22;8539;53.188;8.696;2023-04-06T04:14:44;-0.80;99.90
16846;DHT22;8539;53.188;8.696;2023-04-06T04:17:10;-0.80;99.90
16846;DHT22;8539;53.188;8.696;2023-04-06T04:19:36;-0.80;99.90
16846;DHT22;8539;53.188;8.696;2023-04-06T04:22:03;-0.70;99.90
16846;DHT22;8539;53.188;8.696;2023-04-06T04:24:30;-0.60;99.90
16846;DHT22;8539;53.188;8.696;2023-04-06T04:26:57;-0.60;99.90
16846;DHT22;8539;53.188;8.696;2023-04-06T04:29:23;-0.50;99.90
16846;DHT22;8539;53.188;8.696;2023-04-06T04:31:50;-0.40;99.90
16846;DHT22;8539;53.188;8.696;2023-04-06T04:34:18;-0.30;99.90
16846;DHT22;8539;53.188;8.696;2023-04-06T04:36:49;-0.30;99.90
16846;DHT22;8539;53.188;8.696;2023-04-06T04:39:15;-0.20;99.90
16846;DHT22;8539;53.188;8.696;2023-04-06T04:41:42;-0.20;99.90
16846;DHT22;8539;53.188;8.696;2023-04-06T04:44:08;-0.20;99.90
16846;DHT22;8539;53.188;8.696;2023-04-06T04:46:34;-0.10;99.90
16846;DHT22;8539;53.188;8.696;2023-04-06T04:49:00;-0.10;99.90
16846;DHT22;8539;53.188;8.696;2023-04-06T04:51:27;-0.10;99.90
16846;DHT22;8539;53.188;8.696;2023-04-06T04:53:53;-0.10;99.90
16846;DHT22;8539;53.188;8.696;2023-04-06T04:56:20;-0.10;99.90
16846;DHT22;8539;53.188;8.696;2023-04-06T04:58:46;0.00;99.90
16846;DHT22;8539;53.188;8.696;2023-04-06T05:01:12;0.00;99.90
16846;DHT22;8539;53.188;8.696;2023-04-06T05:03:38;0.00;99.90
16846;DHT22;8539;53.188;8.696;2023-04-06T05:06:05;0.00;99.90
16846;DHT22;8539;53.188;8.696;2023-04-06T05:08:32;0.10;99.90
16846;DHT22;8539;53.188;8.696;2023-04-06T05:10:58;0.10;99.90
16846;DHT22;8539;53.188;8.696;2023-04-06T05:13:25;0.10;99.90
16846;DHT22;8539;53.188;8.696;2023-04-06T05:15:51;0.10;99.90
16846;DHT22;8539;53.188;8.696;2023-04-06T05:18:17;0.10;99.90
16846;DHT22;8539;53.188;8.696;2023-04-06T05:20:43;0.10;99.90
16846;DHT22;8539;53.188;8.696;2023-04-06T05:23:10;0.10;99.90
16846;DHT22;8539;53.188;8.696;2023-04-06T05:25:36;0.10;99.90
16846;DHT22;8539;53.188;8.696;2023-04-06T05:28:03;0.10;99.90
16846;DHT22;8539;53.188;8.696;2023-04-06T05:30:29;0.10;99.90
16846;DHT22;8539;53.188;8.696;2023-04-06T05:32:55;0.20;99.90
16846;DHT22;8539;53.188;8.696;2023-04-06T05:35:21;0.30;99.90
16846;DHT22;8539;53.188;8.696;2023-04-06T05:37:47;0.20;99.90
16846;DHT22;8539;53.188;8.696;2023-04-06T05:40:14;0.30;99.90
16846;DHT22;8539;53.188;8.696;2023-04-06T05:42:42;0.30;99.90
16846;DHT22;8539;53.188;8.696;2023-04-06T05:45:09;0.40;99.90
16846;DHT22;8539;53.188;8.696;2023-04-06T05:47:37;0.40;99.90
16846;DHT22;8539;53.188;8.696;2023-04-06T05:50:03;0.50;99.90
16846;DHT22;8539;53.188;8.696;2023-04-06T05:52:30;0.50;99.90
16846;DHT22;8539;53.188;8.696;2023-04-06T05:54:56;0.60;99.90
16846;DHT22;8539;53.188;8.696;2023-04-06T05:57:23;0.60;99.90
16846;DHT22;8539;53.188;8.696;2023-04-06T05:59:49;0.80;99.90
16846;DHT22;8539;53.188;8.696;2023-04-06T06:02:15;0.80;99.90
16846;DHT22;8539;53.188;8.696;2023-04-06T06:04:41;0.80;99.90
16846;DHT22;8539;53.188;8.696;2023-04-06T06:07:08;0.90;99.90
16846;DHT22;8539;53.188;8.696;2023-04-06T06:09:34;0.90;99.90
16846;DHT22;8539;53.188;8.696;2023-04-06T06:12:00;1.00;99.90
16846;DHT22;8539;53.188;8.696;2023-04-06T06:14:26;1.10;99.90
16846;DHT22;8539;53.188;8.696;2023-04-06T06:16:55;1.20;99.90
16846;DHT22;8539;53.188;8.696;2023-04-06T06:19:22;1.30;99.90
16846;DHT22;8539;53.188;8.696;2023-04-06T06:21:48;1.30;99.90
16846;DHT22;8539;53.188;8.696;2023-04-06T06:24:14;1.40;99.90
16846;DHT22;8539;53.188;8.696;2023-04-06T06:26:40;1.50;99.90
16846;DHT22;8539;53.188;8.696;2023-04-06T06:29:07;1.50;99.90
16846;DHT22;8539;53.188;8.696;2023-04-06T06:31:33;1.80;99.90
16846;DHT22;8539;53.188;8.696;2023-04-06T06:33:59;2.70;99.90
16846;DHT22;8539;53.188;8.696;2023-04-06T06:36:25;3.70;99.90
16846;DHT22;8539;53.188;8.696;2023-04-06T06:38:52;4.60;99.90
16846;DHT22;8539;53.188;8.696;2023-04-06T06:41:18;5.40;99.90
16846;DHT22;8539;53.188;8.696;2023-04-06T06:43:48;5.90;99.90
16846;DHT22;8539;53.188;8.696;2023-04-06T06:46:14;6.30;99.90
16846;DHT22;8539;53.188;8.696;2023-04-06T06:48:40;6.40;99.90
16846;DHT22;8539;53.188;8.696;2023-04-06T06:51:07;6.70;99.90
16846;DHT22;8539;53.188;8.696;2023-04-06T06:53:33;7.10;99.90
16846;DHT22;8539;53.188;8.696;2023-04-06T06:55:59;7.20;99.90
16846;DHT22;8539;53.188;8.696;2023-04-06T06:58:25;7.60;99.90
16846;DHT22;8539;53.188;8.696;2023-04-06T07:00:56;7.80;99.90
16846;DHT22;8539;53.188;8.696;2023-04-06T07:03:23;7.70;99.90
16846;DHT22;8539;53.188;8.696;2023-04-06T07:05:50;7.80;99.90
16846;DHT22;8539;53.188;8.696;2023-04-06T07:08:20;8.00;99.90
16846;DHT22;8539;53.188;8.696;2023-04-06T07:10:46;8.20;99.90
16846;DHT22;8539;53.188;8.696;2023-04-06T07:13:14;8.00;99.90
16846;DHT22;8539;53.188;8.696;2023-04-06T07:15:46;7.90;99.90
16846;DHT22;8539;53.188;8.696;2023-04-06T07:18:12;7.80;99.90
16846;DHT22;8539;53.188;8.696;2023-04-06T07:20:39;8.00;99.90
16846;DHT22;8539;53.188;8.696;2023-04-06T07:23:05;8.00;99.90
16846;DHT22;8539;53.188;8.696;2023-04-06T07:25:33;8.00;99.90
16846;DHT22;8539;53.188;8.696;2023-04-06T07:27:59;8.10;99.90
16846;DHT22;8539;53.188;8.696;2023-04-06T07:30:25;8.10;99.90
16846;DHT22;8539;53.188;8.696;2023-04-06T07:32:55;8.10;99.90
16846;DHT22;8539;53.188;8.696;2023-04-06T07:35:26;8.00;99.90
16846;DHT22;8539;53.188;8.696;2023-04-06T07:37:55;8.00;99.90
16846;DHT22;8539;53.188;8.696;2023-04-06T07:40:21;8.00;99.90
16846;DHT22;8539;53.188;8.696;2023-04-06T07:42:48;8.10;99.90
16846;DHT22;8539;53.188;8.696;2023-04-06T07:45:14;8.10;99.90
16846;DHT22;8539;53.188;8.696;2023-04-06T07:47:42;8.20;99.90
16846;DHT22;8539;53.188;8.696;2023-04-06T07:50:09;8.20;99.90
16846;DHT22;8539;53.188;8.696;2023-04-06T07:52:36;8.20;99.90
16846;DHT22;8539;53.188;8.696;2023-04-06T07:55:02;8.10;99.90
16846;DHT22;8539;53.188;8.696;2023-04-06T07:57:28;8.10;99.90
16846;DHT22;8539;53.188;8.696;2023-04-06T07:59:54;8.30;99.90
16846;DHT22;8539;53.188;8.696;2023-04-06T08:02:20;8.50;99.90
16846;DHT22;8539;53.188;8.696;2023-04-06T08:04:47;8.60;99.90
16846;DHT22;8539;53.188;8.696;2023-04-06T08:07:13;8.60;99.90
16846;DHT22;8539;53.188;8.696;2023-04-06T08:09:40;8.60;99.90
16846;DHT22;8539;53.188;8.696;2023-04-06T08:12:07;8.80;99.90
16846;DHT22;8539;53.188;8.696;2023-04-06T08:14:33;9.00;99.80
16846;DHT22;8539;53.188;8.696;2023-04-06T08:16:59;9.30;99.70
16846;DHT22;8539;53.188;8.696;2023-04-06T08:19:25;9.50;99.60
16846;DHT22;8539;53.188;8.696;2023-04-06T08:21:52;9.60;99.30
16846;DHT22;8539;53.188;8.696;2023-04-06T08:24:18;9.60;98.60
16846;DHT22;8539;53.188;8.696;2023-04-06T08:26:45;9.70;98.20
16846;DHT22;8539;53.188;8.696;2023-04-06T08:29:11;9.90;97.30
16846;DHT22;8539;53.188;8.696;2023-04-06T08:31:37;10.00;96.20
16846;DHT22;8539;53.188;8.696;2023-04-06T08:34:04;10.20;95.80
16846;DHT22;8539;53.188;8.696;2023-04-06T08:36:31;10.30;95.10
16846;DHT22;8539;53.188;8.696;2023-04-06T08:38:59;10.50;94.40
16846;DHT22;8539;53.188;8.696;2023-04-06T08:41:26;10.60;93.90
16846;DHT22;8539;53.188;8.696;2023-04-06T08:43:58;10.70;93.20
16846;DHT22;8539;53.188;8.696;2023-04-06T08:46:25;10.70;92.30
16846;DHT22;8539;53.188;8.696;2023-04-06T08:49:02;10.70;91.80
16846;DHT22;8539;53.188;8.696;2023-04-06T08:51:29;10.70;91.60
16846;DHT22;8539;53.188;8.696;2023-04-06T08:53:57;10.80;91.30
16846;DHT22;8539;53.188;8.696;2023-04-06T08:56:27;11.00;91.10
16846;DHT22;8539;53.188;8.696;2023-04-06T08:58:55;11.10;90.70
16846;DHT22;8539;53.188;8.696;2023-04-06T09:01:23;11.30;90.50
16846;DHT22;8539;53.188;8.696;2023-04-06T09:03:57;11.40;89.30
16846;DHT22;8539;53.188;8.696;2023-04-06T09:06:24;11.40;89.00
16846;DHT22;8539;53.188;8.696;2023-04-06T09:08:50;11.50;88.60
16846;DHT22;8539;53.188;8.696;2023-04-06T09:11:16;11.70;88.30
16846;DHT22;8539;53.188;8.696;2023-04-06T09:13:52;11.90;88.10
16846;DHT22;8539;53.188;8.696;2023-04-06T09:16:20;12.20;82.10
16846;DHT22;8539;53.188;8.696;2023-04-06T09:18:47;12.30;82.00
16846;DHT22;8539;53.188;8.696;2023-04-06T09:21:17;12.30;81.90
16846;DHT22;8539;53.188;8.696;2023-04-06T09:23:46;12.40;81.60
16846;DHT22;8539;53.188;8.696;2023-04-06T09:26:16;12.50;81.50
16846;DHT22;8539;53.188;8.696;2023-04-06T09:28:48;12.60;81.50
16846;DHT22;8539;53.188;8.696;2023-04-06T09:31:17;12.70;81.20
16846;DHT22;8539;53.188;8.696;2023-04-06T09:33:47;13.00;81.30
16846;DHT22;8539;53.188;8.696;2023-04-06T09:36:13;13.20;80.70
16846;DHT22;8539;53.188;8.696;2023-04-06T09:39:01;13.30;80.40
16846;DHT22;8539;53.188;8.696;2023-04-06T09:41:31;13.50;79.80
16846;DHT22;8539;53.188;8.696;2023-04-06T09:44:04;13.50;78.90
16846;DHT22;8539;53.188;8.696;2023-04-06T09:46:51;13.50;78.50
16846;DHT22;8539;53.188;8.696;2023-04-06T09:49:19;13.50;78.50
16846;DHT22;8539;53.188;8.696;2023-04-06T09:51:47;13.70;76.90
16846;DHT22;8539;53.188;8.696;2023-04-06T09:54:22;13.50;74.50
16846;DHT22;8539;53.188;8.696;2023-04-06T09:59:44;13.30;75.90
16846;DHT22;8539;53.188;8.696;2023-04-06T10:02:22;13.30;75.90
16846;DHT22;8539;53.188;8.696;2023-04-06T10:05:00;13.30;75.90
16846;DHT22;8539;53.188;8.696;2023-04-06T10:07:28;13.50;74.90
16846;DHT22;8539;53.188;8.696;2023-04-06T10:09:55;13.50;74.90
16846;DHT22;8539;53.188;8.696;2023-04-06T10:12:22;13.80;74.70
16846;DHT22;8539;53.188;8.696;2023-04-06T10:14:48;13.90;74.30
16846;DHT22;8539;53.188;8.696;2023-04-06T10:17:15;14.20;74.30
16846;DHT22;8539;53.188;8.696;2023-04-06T10:19:49;14.30;74.00
16846;DHT22;8539;53.188;8.696;2023-04-06T10:23:15;14.40;74.10
16846;DHT22;8539;53.188;8.696;2023-04-06T10:25:32;14.60;73.70
16846;DHT22;8539;53.188;8.696;2023-04-06T10:28:05;14.90;73.30
16846;DHT22;8539;53.188;8.696;2023-04-06T10:30:33;15.00;72.40
16846;DHT22;8539;53.188;8.696;2023-04-06T10:33:00;15.10;71.60
16846;DHT22;8539;53.188;8.696;2023-04-06T10:35:37;15.00;70.10
16846;DHT22;8539;53.188;8.696;2023-04-06T10:38:06;14.90;70.30
16846;DHT22;8539;53.188;8.696;2023-04-06T10:40:36;15.00;70.30
16846;DHT22;8539;53.188;8.696;2023-04-06T10:45:34;15.10;70.20
16846;DHT22;8539;53.188;8.696;2023-04-06T10:48:13;15.20;70.20
16846;DHT22;8539;53.188;8.696;2023-04-06T10:50:39;15.30;69.70
16846;DHT22;8539;53.188;8.696;2023-04-06T10:53:07;15.40;69.50
16846;DHT22;8539;53.188;8.696;2023-04-06T10:55:34;15.60;69.20
16846;DHT22;8539;53.188;8.696;2023-04-06T10:58:01;15.60;69.10
16846;DHT22;8539;53.188;8.696;2023-04-06T11:00:27;15.70;68.70
16846;DHT22;8539;53.188;8.696;2023-04-06T11:02:59;15.70;68.50
16846;DHT22;8539;53.188;8.696;2023-04-06T11:05:26;15.70;68.30
16846;DHT22;8539;53.188;8.696;2023-04-06T11:07:52;15.80;68.40
16846;DHT22;8539;53.188;8.696;2023-04-06T11:10:22;15.90;68.00
16846;DHT22;8539;53.188;8.696;2023-04-06T11:12:56;15.70;67.60
16846;DHT22;8539;53.188;8.696;2023-04-06T11:15:22;15.40;67.90
16846;DHT22;8539;53.188;8.696;2023-04-06T11:17:49;15.50;68.00
16846;DHT22;8539;53.188;8.696;2023-04-06T11:20:15;15.60;67.10
16846;DHT22;8539;53.188;8.696;2023-04-06T11:22:53;15.60;67.10
16846;DHT22;8539;53.188;8.696;2023-04-06T11:25:19;15.40;67.00
16846;DHT22;8539;53.188;8.696;2023-04-06T11:27:47;15.30;66.70
16846;DHT22;8539;53.188;8.696;2023-04-06T11:30:14;15.10;67.20
16846;DHT22;8539;53.188;8.696;2023-04-06T11:32:42;15.10;67.30
16846;DHT22;8539;53.188;8.696;2023-04-06T11:35:26;15.30;67.50
16846;DHT22;8539;53.188;8.696;2023-04-06T11:37:52;15.50;67.80
16846;DHT22;8539;53.188;8.696;2023-04-06T11:40:22;15.10;68.10
16846;DHT22;8539;53.188;8.696;2023-04-06T11:42:54;15.40;68.30
16846;DHT22;8539;53.188;8.696;2023-04-06T11:45:22;15.60;66.10
16846;DHT22;8539;53.188;8.696;2023-04-06T11:47:59;15.70;65.40
16846;DHT22;8539;53.188;8.696;2023-04-06T11:50:32;15.90;64.40
16846;DHT22;8539;53.188;8.696;2023-04-06T11:53:00;16.00;63.80
16846;DHT22;8539;53.188;8.696;2023-04-06T11:55:27;16.00;63.00
16846;DHT22;8539;53.188;8.696;2023-04-06T11:57:53;15.80;62.10
16846;DHT22;8539;53.188;8.696;2023-04-06T12:00:21;15.60;61.60
16846;DHT22;8539;53.188;8.696;2023-04-06T12:02:48;15.40;61.40
16846;DHT22;8539;53.188;8.696;2023-04-06T12:05:15;15.40;61.30
16846;DHT22;8539;53.188;8.696;2023-04-06T12:07:41;15.50;61.50
16846;DHT22;8539;53.188;8.696;2023-04-06T12:10:07;15.70;61.80
16846;DHT22;8539;53.188;8.696;2023-04-06T12:12:35;15.80;62.20
16846;DHT22;8539;53.188;8.696;2023-04-06T12:15:01;16.00;62.20
16846;DHT22;8539;53.188;8.696;2023-04-06T12:17:28;16.00;62.10
16846;DHT22;8539;53.188;8.696;2023-04-06T12:19:54;16.10;62.10
16846;DHT22;8539;53.188;8.696;2023-04-06T12:22:21;15.90;60.80
16846;DHT22;8539;53.188;8.696;2023-04-06T12:24:47;15.60;60.50
16846;DHT22;8539;53.188;8.696;2023-04-06T12:27:13;15.50;60.20
16846;DHT22;8539;53.188;8.696;2023-04-06T12:29:39;15.40;60.00
16846;DHT22;8539;53.188;8.696;2023-04-06T12:32:06;15.40;59.50
16846;DHT22;8539;53.188;8.696;2023-04-06T12:34:33;15.50;59.40
16846;DHT22;8539;53.188;8.696;2023-04-06T12:36:59;15.60;59.40
16846;DHT22;8539;53.188;8.696;2023-04-06T12:39:27;15.70;59.30
16846;DHT22;8539;53.188;8.696;2023-04-06T12:41:53;15.80;59.10
16846;DHT22;8539;53.188;8.696;2023-04-06T12:44:19;16.00;58.80
16846;DHT22;8539;53.188;8.696;2023-04-06T12:46:46;16.10;58.50
16846;DHT22;8539;53.188;8.696;2023-04-06T12:49:12;16.10;57.90
16846;DHT22;8539;53.188;8.696;2023-04-06T12:51:38;16.00;58.00
16846;DHT22;8539;53.188;8.696;2023-04-06T12:54:04;16.10;57.80
16846;DHT22;8539;53.188;8.696;2023-04-06T12:56:32;16.20;56.90
16846;DHT22;8539;53.188;8.696;2023-04-06T12:58:58;16.10;56.60
16846;DHT22;8539;53.188;8.696;2023-04-06T13:01:24;15.90;53.50
16846;DHT22;8539;53.188;8.696;2023-04-06T13:03:52;15.70;53.10
16846;DHT22;8539;53.188;8.696;2023-04-06T13:06:18;15.60;52.70
16846;DHT22;8539;53.188;8.696;2023-04-06T13:08:44;15.70;52.70
16846;DHT22;8539;53.188;8.696;2023-04-06T13:11:13;15.90;53.40
16846;DHT22;8539;53.188;8.696;2023-04-06T13:13:39;16.10;53.70
16846;DHT22;8539;53.188;8.696;2023-04-06T13:16:08;16.40;54.40
16846;DHT22;8539;53.188;8.696;2023-04-06T13:18:35;16.60;54.60
16846;DHT22;8539;53.188;8.696;2023-04-06T13:21:02;16.70;54.40
16846;DHT22;8539;53.188;8.696;2023-04-06T13:23:29;16.60;54.20
16846;DHT22;8539;53.188;8.696;2023-04-06T13:26:06;16.50;54.00
16846;DHT22;8539;53.188;8.696;2023-04-06T13:28:34;16.50;53.80
16846;DHT22;8539;53.188;8.696;2023-04-06T13:31:02;16.50;53.10
16846;DHT22;8539;53.188;8.696;2023-04-06T13:33:29;16.40;52.80
16846;DHT22;8539;53.188;8.696;2023-04-06T13:35:56;16.30;52.70
16846;DHT22;8539;53.188;8.696;2023-04-06T13:38:23;16.40;53.00
16846;DHT22;8539;53.188;8.696;2023-04-06T13:40:51;16.50;53.00
16846;DHT22;8539;53.188;8.696;2023-04-06T13:43:17;16.50;52.90
16846;DHT22;8539;53.188;8.696;2023-04-06T13:45:49;16.50;52.80
16846;DHT22;8539;53.188;8.696;2023-04-06T13:48:16;16.40;52.80
16846;DHT22;8539;53.188;8.696;2023-04-06T13:50:42;16.30;52.70
16846;DHT22;8539;53.188;8.696;2023-04-06T13:53:08;16.40;52.60
16846;DHT22;8539;53.188;8.696;2023-04-06T13:55:34;16.40;52.40
16846;DHT22;8539;53.188;8.696;2023-04-06T13:58:00;16.40;52.70
16846;DHT22;8539;53.188;8.696;2023-04-06T14:00:26;16.60;53.00
16846;DHT22;8539;53.188;8.696;2023-04-06T14:02:56;16.80;53.30
16846;DHT22;8539;53.188;8.696;2023-04-06T14:05:22;16.90;53.20
16846;DHT22;8539;53.188;8.696;2023-04-06T14:07:50;17.00;52.90
16846;DHT22;8539;53.188;8.696;2023-04-06T14:10:16;17.00;52.80
16846;DHT22;8539;53.188;8.696;2023-04-06T14:12:43;17.10;52.40
16846;DHT22;8539;53.188;8.696;2023-04-06T14:15:11;17.10;52.20
16846;DHT22;8539;53.188;8.696;2023-04-06T14:17:38;17.30;52.00
16846;DHT22;8539;53.188;8.696;2023-04-06T14:20:05;17.30;51.80
16846;DHT22;8539;53.188;8.696;2023-04-06T14:22:31;17.10;51.30
16846;DHT22;8539;53.188;8.696;2023-04-06T14:24:58;17.00;51.00
16846;DHT22;8539;53.188;8.696;2023-04-06T14:27:24;16.90;50.60
16846;DHT22;8539;53.188;8.696;2023-04-06T14:29:51;16.80;50.30
16846;DHT22;8539;53.188;8.696;2023-04-06T14:32:20;16.70;50.60
16846;DHT22;8539;53.188;8.696;2023-04-06T14:34:46;16.70;50.60
16846;DHT22;8539;53.188;8.696;2023-04-06T14:37:12;16.60;50.60
16846;DHT22;8539;53.188;8.696;2023-04-06T14:39:39;16.50;50.70
16846;DHT22;8539;53.188;8.696;2023-04-06T14:42:05;16.40;50.90
16846;DHT22;8539;53.188;8.696;2023-04-06T14:44:33;16.30;51.10
16846;DHT22;8539;53.188;8.696;2023-04-06T14:47:00;16.20;51.10
16846;DHT22;8539;53.188;8.696;2023-04-06T14:49:26;16.10;51.20
16846;DHT22;8539;53.188;8.696;2023-04-06T14:51:52;16.00;51.40
16846;DHT22;8539;53.188;8.696;2023-04-06T14:54:18;15.80;51.60
16846;DHT22;8539;53.188;8.696;2023-04-06T14:56:44;15.70;51.70
16846;DHT22;8539;53.188;8.696;2023-04-06T14:59:10;15.50;51.40
16846;DHT22;8539;53.188;8.696;2023-04-06T15:01:37;15.30;51.40
16846;DHT22;8539;53.188;8.696;2023-04-06T15:04:04;15.20;51.30
16846;DHT22;8539;53.188;8.696;2023-04-06T15:06:31;15.20;51.50
16846;DHT22;8539;53.188;8.696;2023-04-06T15:08:57;15.10;51.50
16846;DHT22;8539;53.188;8.696;2023-04-06T15:11:23;15.10;51.80
16846;DHT22;8539;53.188;8.696;2023-04-06T15:13:50;15.10;52.00
16846;DHT22;8539;53.188;8.696;2023-04-06T15:16:16;15.10;52.30
16846;DHT22;8539;53.188;8.696;2023-04-06T15:18:42;15.20;52.50
16846;DHT22;8539;53.188;8.696;2023-04-06T15:21:08;15.30;52.40
16846;DHT22;8539;53.188;8.696;2023-04-06T15:23:35;15.30;52.40
16846;DHT22;8539;53.188;8.696;2023-04-06T15:26:01;15.30;52.20
16846;DHT22;8539;53.188;8.696;2023-04-06T15:28:28;15.20;52.10
16846;DHT22;8539;53.188;8.696;2023-04-06T15:30:54;15.20;52.00
16846;DHT22;8539;53.188;8.696;2023-04-06T15:33:21;15.20;51.70
16846;DHT22;8539;53.188;8.696;2023-04-06T15:35:51;15.20;51.70
16846;DHT22;8539;53.188;8.696;2023-04-06T15:38:17;15.10;51.80
16846;DHT22;8539;53.188;8.696;2023-04-06T15:40:48;15.10;51.90
16846;DHT22;8539;53.188;8.696;2023-04-06T15:43:15;15.00;51.90
16846;DHT22;8539;53.188;8.696;2023-04-06T15:45:41;14.80;51.70
16846;DHT22;8539;53.188;8.696;2023-04-06T15:48:08;14.60;51.70
16846;DHT22;8539;53.188;8.696;2023-04-06T15:50:34;14.40;51.70
16846;DHT22;8539;53.188;8.696;2023-04-06T15:53:01;14.20;51.80
16846;DHT22;8539;53.188;8.696;2023-04-06T15:55:27;14.10;52.10
16846;DHT22;8539;53.188;8.696;2023-04-06T15:57:53;14.00;52.40
16846;DHT22;8539;53.188;8.696;2023-04-06T16:00:20;13.90;52.90